createdAt,value
2019-06-07T00:00:32.159Z,17.13
2019-06-07T00:01:20.964Z,11.93
2019-06-07T00:02:27.716Z,12.77
2019-06-07T00:03:36.042Z,13.03
2019-06-07T00:04:42.945Z,15.57
2019-06-07T00:05:50.917Z,13.63
2019-06-07T00:06:57.711Z,14.00
2019-06-07T00:08:10.788Z,12.80
2019-06-07T00:09:15.315Z,11.53
2019-06-07T00:10:36.104Z,15.60
2019-06-07T00:11:32.466Z,14.90
2019-06-07T00:12:41.129Z,18.80
2019-06-07T00:13:48.526Z,13.57
2019-06-07T00:14:56.526Z,13.30
2019-06-07T00:16:03.695Z,13.30
2019-06-07T00:17:14.093Z,14.33
2019-06-07T00:18:25.662Z,16.50
2019-06-07T00:19:29.252Z,12.90
2019-06-07T00:20:36.267Z,15.40
2019-06-07T00:22:52.614Z,11.60
2019-06-07T00:24:00.489Z,11.40
2019-06-07T00:25:12.402Z,16.80
2019-06-07T00:26:21.364Z,12.00
2019-06-07T00:27:27.198Z,15.20
2019-06-07T00:28:34.983Z,17.53
2019-06-07T00:29:41.829Z,19.07
2019-06-07T00:30:52.291Z,12.00
2019-06-07T00:31:58.161Z,17.93
2019-06-07T00:33:06.055Z,18.77
2019-06-07T00:34:14.038Z,13.13
2019-06-07T00:35:22.577Z,12.37
2019-06-07T00:36:29.865Z,13.53
2019-06-07T00:37:37.522Z,12.40
2019-06-07T00:38:44.929Z,14.80
2019-06-07T00:40:12.886Z,16.20
2019-06-07T00:41:00.940Z,22.67
2019-06-07T00:42:10.439Z,16.90
2019-06-07T00:43:25.247Z,13.30
2019-06-07T00:44:27.433Z,15.80
2019-06-07T00:45:34.351Z,12.93
2019-06-07T00:46:41.991Z,17.10
2019-06-07T00:47:49.152Z,13.60
2019-06-07T00:48:56.675Z,19.40
2019-06-07T00:50:03.484Z,18.00
2019-06-07T00:51:11.562Z,16.10
2019-06-07T00:53:10.707Z,13.30
2019-06-07T00:53:32.119Z,15.70
2019-06-07T00:54:36.625Z,14.93
2019-06-07T00:55:44.191Z,13.30
2019-06-07T00:56:51.264Z,16.73
2019-06-07T00:57:58.859Z,15.90
2019-06-07T00:59:11.310Z,21.53
2019-06-07T01:00:21.443Z,16.90
2019-06-07T01:01:25.511Z,15.47
2019-06-07T01:02:33.669Z,15.50
2019-06-07T01:03:40.825Z,15.40
2019-06-07T01:04:48.371Z,23.53
2019-06-07T01:05:55.541Z,19.00
2019-06-07T01:07:03.098Z,19.90
2019-06-07T01:08:10.262Z,17.00
2019-06-07T01:09:20.272Z,20.33
2019-06-07T01:10:51.629Z,23.20
2019-06-07T01:11:36.313Z,26.93
2019-06-07T01:12:43.696Z,20.00
2019-06-07T01:13:51.685Z,18.10
2019-06-07T01:14:58.519Z,20.23
2019-06-07T01:16:06.215Z,17.90
2019-06-07T01:17:39.664Z,18.30
2019-06-07T01:18:41.061Z,21.70
2019-06-07T01:19:44.586Z,19.13
2019-06-07T01:20:52.504Z,18.83
2019-06-07T01:21:59.503Z,19.30
2019-06-07T01:23:51.832Z,18.87
2019-06-07T01:24:15.550Z,22.13
2019-06-07T01:25:26.095Z,21.27
2019-06-07T01:26:31.539Z,19.23
2019-06-07T01:27:39.474Z,23.00
2019-06-07T01:28:46.222Z,17.53
2019-06-07T01:29:53.796Z,19.10
2019-06-07T01:31:00.561Z,14.53
2019-06-07T01:32:08.140Z,18.43
2019-06-07T01:33:15.906Z,18.60
2019-06-07T01:34:26.596Z,22.53
2019-06-07T01:35:32.285Z,20.93
2019-06-07T01:36:39.869Z,17.23
2019-06-07T01:37:46.965Z,14.67
2019-06-07T01:38:54.960Z,15.33
2019-06-07T01:40:02.151Z,17.17
2019-06-07T01:41:10.141Z,22.17
2019-06-07T01:42:18.161Z,20.87
2019-06-07T01:43:28.458Z,17.40
2019-06-07T01:44:35.074Z,18.63
2019-06-07T01:45:43.064Z,22.43
2019-06-07T01:46:50.256Z,16.07
2019-06-07T01:47:58.328Z,17.13
2019-06-07T01:49:05.737Z,22.63
2019-06-07T01:50:13.957Z,20.30
2019-06-07T01:51:22.014Z,24.77
2019-06-07T01:52:30.139Z,21.80
2019-06-07T01:53:37.206Z,21.33
2019-06-07T01:54:58.610Z,20.20
2019-06-07T01:55:53.944Z,20.20
2019-06-07T01:57:01.691Z,21.40
2019-06-07T01:58:08.870Z,15.80
2019-06-07T01:59:17.775Z,27.33
2019-06-07T02:00:26.595Z,21.83
2019-06-07T02:01:35.529Z,20.97
2019-06-07T02:02:42.914Z,21.07
2019-06-07T02:03:50.857Z,18.43
2019-06-07T02:04:57.776Z,21.83
2019-06-07T02:06:05.976Z,22.67
2019-06-07T02:07:13.081Z,23.90
2019-06-07T02:08:22.225Z,19.50
2019-06-07T02:09:31.741Z,26.80
2019-06-07T02:10:38.633Z,21.00
2019-06-07T02:11:45.736Z,19.23
2019-06-07T02:12:53.707Z,23.33
2019-06-07T02:14:00.481Z,16.37
2019-06-07T02:15:10.056Z,18.20
2019-06-07T02:16:17.537Z,20.83
2019-06-07T02:17:26.744Z,20.10
2019-06-07T02:18:35.057Z,17.27
2019-06-07T02:19:42.795Z,19.60
2019-06-07T02:20:49.592Z,19.50
2019-06-07T02:21:57.595Z,21.43
2019-06-07T02:23:05.008Z,18.10
2019-06-07T02:24:12.585Z,15.80
2019-06-07T02:25:42.544Z,24.23
2019-06-07T02:26:32.169Z,22.00
2019-06-07T02:27:37.398Z,17.40
2019-06-07T02:28:45.823Z,27.87
2019-06-07T02:29:53.433Z,25.17
2019-06-07T02:31:01.085Z,17.43
2019-06-07T02:32:08.017Z,21.83
2019-06-07T02:33:15.883Z,22.50
2019-06-07T02:34:24.893Z,22.20
2019-06-07T02:35:39.524Z,26.13
2019-06-07T02:36:41.873Z,23.60
2019-06-07T02:37:49.583Z,22.13
2019-06-07T02:38:57.306Z,24.33
2019-06-07T02:40:05.525Z,24.17
2019-06-07T02:41:12.897Z,28.03
2019-06-07T02:42:25.224Z,26.63
2019-06-07T02:43:34.405Z,21.60
2019-06-07T02:44:40.206Z,22.53
2019-06-07T02:45:47.381Z,20.80
2019-06-07T02:46:54.982Z,22.33
2019-06-07T02:48:01.808Z,22.43
2019-06-07T02:49:09.381Z,21.90
2019-06-07T02:50:18.781Z,25.80
2019-06-07T02:51:28.051Z,23.20
2019-06-07T02:52:40.313Z,20.87
2019-06-07T02:53:44.905Z,21.67
2019-06-07T02:54:51.728Z,28.13
2019-06-07T02:56:35.285Z,25.80
2019-06-07T02:57:08.595Z,21.40
2019-06-07T02:58:16.590Z,28.37
2019-06-07T02:59:47.225Z,25.47
2019-06-07T03:01:06.650Z,23.27
2019-06-07T03:02:00.332Z,22.90
2019-06-07T03:03:08.140Z,28.20
2019-06-07T03:04:17.027Z,23.90
2019-06-07T03:05:25.215Z,22.20
2019-06-07T03:06:39.540Z,23.50
2019-06-07T03:07:47.803Z,28.50
2019-06-07T03:08:56.160Z,23.47
2019-06-07T03:10:05.213Z,28.23
2019-06-07T03:11:14.616Z,27.93
2019-06-07T03:12:26.570Z,33.30
2019-06-07T03:13:40.815Z,25.73
2019-06-07T03:14:51.500Z,32.40
2019-06-07T03:15:59.940Z,26.93
2019-06-07T03:17:20.095Z,31.20
2019-06-07T03:18:51.631Z,28.77
2019-06-07T03:20:01.790Z,31.60
2019-06-07T03:21:13.149Z,29.53
2019-06-07T03:22:20.026Z,29.63
2019-06-07T03:23:32.356Z,32.70
2019-06-07T03:24:42.117Z,32.70
2019-06-07T03:25:52.857Z,28.23
2019-06-07T03:28:09.878Z,31.93
2019-06-07T03:29:17.141Z,30.97
2019-06-07T03:30:59.683Z,28.63
2019-06-07T03:31:45.357Z,30.37
2019-06-07T03:32:47.283Z,32.40
2019-06-07T03:33:53.421Z,28.87
2019-06-07T03:35:00.978Z,27.60
2019-06-07T03:36:23.535Z,30.00
2019-06-07T03:37:18.183Z,29.10
2019-06-07T03:38:24.943Z,25.80
2019-06-07T03:39:33.711Z,28.13
2019-06-07T03:40:41.371Z,29.83
2019-06-07T03:42:05.068Z,28.60
2019-06-07T03:42:58.482Z,28.70
2019-06-07T03:44:06.997Z,29.50
2019-06-07T03:45:14.085Z,29.10
2019-06-07T03:46:22.069Z,28.50
2019-06-07T03:47:31.942Z,29.00
2019-06-07T03:48:40.724Z,29.10
2019-06-07T03:49:46.941Z,26.97
2019-06-07T03:51:04.068Z,27.70
2019-06-07T03:52:03.808Z,27.27
2019-06-07T03:53:11.702Z,29.07
2019-06-07T03:54:18.452Z,35.53
2019-06-07T03:55:27.811Z,30.53
2019-06-07T03:56:36.051Z,32.23
2019-06-07T03:58:29.953Z,27.53
2019-06-07T03:58:53.640Z,27.13
2019-06-07T04:00:01.180Z,32.90
2019-06-07T04:01:08.175Z,30.23
2019-06-07T04:02:15.724Z,34.10
2019-06-07T04:03:33.318Z,29.13
2019-06-07T04:04:32.566Z,31.97
2019-06-07T04:05:43.627Z,33.90
2019-06-07T04:06:50.560Z,30.67
2019-06-07T04:07:57.665Z,33.40
2019-06-07T04:09:06.958Z,28.50
2019-06-07T04:10:15.125Z,29.07
2019-06-07T04:11:22.667Z,33.10
2019-06-07T04:12:31.855Z,31.27
2019-06-07T04:13:42.709Z,28.27
2019-06-07T04:14:48.102Z,24.50
2019-06-07T04:15:55.982Z,28.80
2019-06-07T04:17:02.775Z,25.57
2019-06-07T04:18:10.427Z,27.77
2019-06-07T04:19:17.540Z,24.53
2019-06-07T04:20:25.097Z,25.37
2019-06-07T04:21:34.350Z,26.10
2019-06-07T04:22:42.721Z,27.17
2019-06-07T04:23:49.554Z,21.47
2019-06-07T04:24:57.940Z,30.80
2019-06-07T04:26:04.805Z,23.10
2019-06-07T04:27:12.924Z,30.53
2019-06-07T04:28:20.003Z,27.80
2019-06-07T04:29:33.997Z,30.93
2019-06-07T04:30:44.446Z,25.47
2019-06-07T04:31:52.042Z,28.60
2019-06-07T04:32:58.804Z,33.53
2019-06-07T04:34:06.577Z,25.73
2019-06-07T04:35:13.927Z,28.00
2019-06-07T04:36:41.893Z,31.03
2019-06-07T04:37:38.015Z,24.53
2019-06-07T04:38:45.273Z,28.60
2019-06-07T04:39:54.117Z,27.10
2019-06-07T04:41:02.608Z,28.60
2019-06-07T04:42:10.775Z,25.80
2019-06-07T04:43:18.794Z,31.73
2019-06-07T04:44:27.029Z,28.50
2019-06-07T04:45:45.775Z,28.60
2019-06-07T04:46:48.764Z,26.57
2019-06-07T04:47:58.407Z,24.20
2019-06-07T04:49:06.474Z,30.63
2019-06-07T04:50:14.956Z,23.97
2019-06-07T04:51:26.087Z,23.87
2019-06-07T04:52:39.892Z,28.77
2019-06-07T04:53:43.276Z,26.57
2019-06-07T04:54:51.339Z,22.63
2019-06-07T04:55:58.608Z,28.47
2019-06-07T04:57:06.326Z,27.93
2019-06-07T04:58:13.087Z,25.83
2019-06-07T05:00:01.102Z,30.43
2019-06-07T05:00:51.839Z,28.93
2019-06-07T05:01:43.947Z,26.73
2019-06-07T05:02:51.128Z,28.27
2019-06-07T05:03:58.738Z,27.00
2019-06-07T05:05:07.337Z,30.37
2019-06-07T05:06:14.898Z,26.97
2019-06-07T05:07:21.687Z,23.60
2019-06-07T05:08:31.495Z,26.47
2019-06-07T05:09:42.609Z,25.57
2019-06-07T05:10:47.532Z,28.57
2019-06-07T05:11:54.651Z,29.80
2019-06-07T05:13:02.205Z,35.77
2019-06-07T05:14:09.077Z,35.23
2019-06-07T05:15:17.289Z,29.73
2019-06-07T05:16:24.018Z,32.00
2019-06-07T05:17:32.831Z,32.27
2019-06-07T05:18:43.045Z,30.63
2019-06-07T05:19:50.420Z,32.83
2019-06-07T05:20:59.205Z,27.00
2019-06-07T05:22:07.483Z,30.33
2019-06-07T05:23:59.374Z,28.10
2019-06-07T05:24:23.720Z,28.00
2019-06-07T05:25:33.270Z,31.63
2019-06-07T05:26:42.683Z,29.30
2019-06-07T05:27:48.955Z,33.53
2019-06-07T05:28:56.570Z,26.10
2019-06-07T05:30:13.537Z,35.00
2019-06-07T05:31:13.889Z,26.10
2019-06-07T05:32:20.840Z,32.00
2019-06-07T05:33:28.357Z,30.60
2019-06-07T05:34:37.014Z,29.40
2019-06-07T05:35:44.621Z,30.47
2019-06-07T05:37:10.669Z,26.40
2019-06-07T05:38:00.629Z,30.50
2019-06-07T05:39:09.396Z,31.70
2019-06-07T05:40:24.967Z,31.40
2019-06-07T05:41:32.698Z,25.90
2019-06-07T05:42:46.020Z,29.37
2019-06-07T05:44:11.317Z,34.53
2019-06-07T05:44:59.293Z,28.73
2019-06-07T05:46:06.459Z,27.30
2019-06-07T05:47:14.024Z,27.63
2019-06-07T05:48:20.857Z,28.87
2019-06-07T05:49:28.515Z,32.57
2019-06-07T05:50:44.975Z,24.27
2019-06-07T05:51:45.217Z,30.27
2019-06-07T05:52:52.400Z,29.33
2019-06-07T05:53:59.939Z,25.20
2019-06-07T05:55:07.021Z,29.67
2019-06-07T05:56:15.583Z,28.60
2019-06-07T05:57:23.203Z,22.67
2019-06-07T05:58:31.123Z,27.73
2019-06-07T05:59:41.124Z,26.23
2019-06-07T06:00:47.900Z,24.67
2019-06-07T06:02:02.617Z,22.43
2019-06-07T06:03:06.117Z,26.50
2019-06-07T06:04:13.459Z,24.87
2019-06-07T06:05:33.418Z,26.73
2019-06-07T06:06:29.816Z,26.20
2019-06-07T06:07:41.228Z,25.80
2019-06-07T06:08:47.924Z,28.03
2019-06-07T06:09:55.924Z,22.13
2019-06-07T06:11:02.706Z,87.03
2019-06-07T06:12:11.053Z,33.70
2019-06-07T06:13:18.197Z,21.43
2019-06-07T06:14:26.114Z,26.77
2019-06-07T06:15:42.077Z,25.30
2019-06-07T06:16:45.372Z,22.57
2019-06-07T06:17:53.884Z,29.10
2019-06-07T06:19:00.070Z,19.83
2019-06-07T06:20:09.140Z,29.07
2019-06-07T06:21:19.925Z,21.17
2019-06-07T06:22:25.968Z,23.50
2019-06-07T06:23:33.883Z,26.93
2019-06-07T06:24:48.846Z,22.27
2019-06-07T06:25:56.503Z,25.23
2019-06-07T06:27:18.431Z,21.80
2019-06-07T06:28:12.749Z,20.57
2019-06-07T06:29:24.148Z,26.43
2019-06-07T06:30:41.207Z,22.13
2019-06-07T06:32:35.824Z,20.27
2019-06-07T06:32:58.931Z,23.33
2019-06-07T06:34:05.912Z,22.73
2019-06-07T06:35:14.360Z,21.13
2019-06-07T06:36:21.942Z,26.47
2019-06-07T06:37:30.091Z,22.00
2019-06-07T06:38:38.555Z,21.87
2019-06-07T06:39:49.885Z,20.77
2019-06-07T06:41:14.742Z,23.20
2019-06-07T06:42:06.449Z,26.90
2019-06-07T06:43:13.983Z,21.00
2019-06-07T06:44:21.560Z,19.90
2019-06-07T06:45:28.291Z,20.07
2019-06-07T06:46:40.981Z,21.00
2019-06-07T06:47:47.632Z,22.40
2019-06-07T06:48:55.496Z,24.80
2019-06-07T06:50:03.543Z,19.90
2019-06-07T06:51:11.395Z,19.07
2019-06-07T06:52:18.144Z,19.63
2019-06-07T06:53:26.025Z,20.57
2019-06-07T06:54:40.635Z,16.60
2019-06-07T06:55:43.920Z,19.93
2019-06-07T06:56:52.780Z,16.60
2019-06-07T06:58:01.201Z,20.77
2019-06-07T07:00:18.751Z,16.33
2019-06-07T07:01:26.020Z,20.03
2019-06-07T07:02:33.580Z,19.23
2019-06-07T07:04:00.238Z,18.37
2019-06-07T07:04:53.478Z,18.67
2019-06-07T07:06:24.211Z,16.73
2019-06-07T07:07:09.390Z,13.47
2019-06-07T07:08:17.009Z,16.03
2019-06-07T07:09:26.321Z,18.60
2019-06-07T07:10:43.089Z,13.03
2019-06-07T07:12:04.255Z,17.07
2019-06-07T07:12:59.279Z,13.63
2019-06-07T07:14:07.055Z,20.40
2019-06-07T07:15:18.603Z,16.97
2019-06-07T07:16:26.138Z,13.63
2019-06-07T07:17:50.917Z,15.40
2019-06-07T07:18:44.119Z,17.57
2019-06-07T07:19:53.053Z,12.93
2019-06-07T07:21:00.374Z,15.60
2019-06-07T07:22:07.253Z,13.10
2019-06-07T07:23:15.426Z,17.27
2019-06-07T07:24:22.663Z,14.10
2019-06-07T07:25:30.513Z,11.27
2019-06-07T07:26:37.816Z,15.53
2019-06-07T07:27:47.245Z,11.97
2019-06-07T07:28:57.440Z,16.50
2019-06-07T07:30:35.628Z,12.13
2019-06-07T07:31:11.976Z,12.17
2019-06-07T07:32:19.841Z,16.70
2019-06-07T07:34:20.225Z,12.70
2019-06-07T07:34:37.675Z,9.90
2019-06-07T07:36:09.589Z,12.63
2019-06-07T07:36:59.550Z,14.97
2019-06-07T07:38:02.995Z,13.13
2019-06-07T07:39:10.716Z,16.77
2019-06-07T07:41:26.888Z,12.17
2019-06-07T07:42:33.998Z,16.50
2019-06-07T07:43:41.778Z,19.23
2019-06-07T07:44:49.934Z,22.50
2019-06-07T07:46:02.740Z,15.30
2019-06-07T07:47:07.126Z,19.07
2019-06-07T07:48:18.159Z,24.80
2019-06-07T07:49:23.300Z,17.67
2019-06-07T07:50:31.320Z,18.37
2019-06-07T07:51:38.167Z,15.47
2019-06-07T07:52:48.177Z,16.73
2019-06-07T07:54:09.066Z,24.23
2019-06-07T07:55:05.841Z,16.10
2019-06-07T07:56:12.734Z,16.13
2019-06-07T07:57:20.648Z,22.10
2019-06-07T07:58:27.404Z,19.63
2019-06-07T07:59:44.190Z,19.27
2019-06-07T08:00:57.271Z,18.90
2019-06-07T08:01:55.855Z,24.53
2019-06-07T08:03:04.384Z,21.27
2019-06-07T08:04:10.828Z,19.30
2019-06-07T08:05:25.665Z,20.63
2019-06-07T08:06:27.659Z,20.03
2019-06-07T08:07:34.414Z,23.30
2019-06-07T08:08:42.559Z,26.70
2019-06-07T08:09:51.459Z,18.80
2019-06-07T08:11:01.785Z,22.07
2019-06-07T08:12:07.243Z,19.43
2019-06-07T08:13:24.537Z,18.03
2019-06-07T08:14:23.693Z,27.17
2019-06-07T08:15:31.347Z,17.77
2019-06-07T08:16:38.229Z,18.03
2019-06-07T08:17:47.255Z,19.17
2019-06-07T08:18:58.523Z,18.07
2019-06-07T08:20:03.789Z,22.63
2019-06-07T08:21:24.512Z,17.77
2019-06-07T08:22:20.264Z,21.57
2019-06-07T08:23:27.017Z,20.60
2019-06-07T08:24:34.577Z,18.20
2019-06-07T08:25:41.534Z,21.20
2019-06-07T08:27:15.942Z,18.50
2019-06-07T08:27:59.008Z,18.87
2019-06-07T08:29:07.659Z,18.70
2019-06-07T08:30:47.254Z,17.93
2019-06-07T08:31:25.783Z,25.50
2019-06-07T08:32:32.538Z,16.13
2019-06-07T08:33:40.428Z,23.80
2019-06-07T08:34:49.827Z,16.47
2019-06-07T08:36:10.383Z,14.10
2019-06-07T08:37:05.441Z,17.17
2019-06-07T08:38:25.837Z,19.10
2019-06-07T08:39:21.983Z,14.07
2019-06-07T08:40:29.624Z,18.93
2019-06-07T08:41:37.041Z,33.37
2019-06-07T08:43:02.936Z,13.40
2019-06-07T08:43:55.319Z,15.40
2019-06-07T08:45:05.443Z,13.40
2019-06-07T08:46:11.138Z,13.63
2019-06-07T08:47:20.896Z,12.37
2019-06-07T08:48:29.995Z,10.50
2019-06-07T08:49:36.850Z,13.33
2019-06-07T08:50:44.015Z,12.83
2019-06-07T08:51:56.622Z,16.30
2019-06-07T08:53:11.258Z,13.70
2019-06-07T08:54:22.490Z,12.97
2019-06-07T08:55:18.953Z,10.20
2019-06-07T08:56:26.875Z,10.13
2019-06-07T08:57:33.656Z,10.20
2019-06-07T08:58:41.845Z,15.77
2019-06-07T08:59:48.931Z,10.57
2019-06-07T09:01:03.664Z,13.00
2019-06-07T09:02:22.542Z,9.73
2019-06-07T09:03:14.595Z,11.00
2019-06-07T09:04:21.521Z,8.73
2019-06-07T09:05:29.608Z,9.07
2019-06-07T09:07:45.815Z,8.57
2019-06-07T09:08:53.810Z,11.80
2019-06-07T09:10:09.415Z,8.60
2019-06-07T09:11:11.721Z,10.50
2019-06-07T09:12:19.686Z,11.40
2019-06-07T09:13:26.414Z,7.53
2019-06-07T09:14:34.137Z,7.63
2019-06-07T09:15:40.986Z,9.90
2019-06-07T09:16:48.981Z,10.67
2019-06-07T09:18:34.990Z,10.07
2019-06-07T09:19:10.669Z,6.40
2019-06-07T09:20:35.923Z,8.07
2019-06-07T09:21:25.215Z,9.53
2019-06-07T09:22:31.942Z,8.10
2019-06-07T09:23:39.529Z,11.40
2019-06-07T09:24:46.674Z,10.17
2019-06-07T09:26:00.863Z,7.30
2019-06-07T09:27:07.180Z,8.90
2019-06-07T09:28:18.783Z,16.30
2019-06-07T09:29:21.743Z,9.87
2019-06-07T09:30:43.563Z,7.60
2019-06-07T09:31:53.377Z,11.10
2019-06-07T09:33:01.917Z,10.27
2019-06-07T09:34:14.359Z,6.60
2019-06-07T09:35:18.876Z,8.43
2019-06-07T09:36:25.611Z,14.10
2019-06-07T09:38:04.456Z,11.80
2019-06-07T09:38:43.301Z,8.80
2019-06-07T09:39:51.467Z,8.57
2019-06-07T09:41:00.434Z,11.43
2019-06-07T09:42:11.942Z,14.30
2019-06-07T09:44:00.210Z,7.30
2019-06-07T09:44:26.807Z,8.67
2019-06-07T09:45:33.712Z,10.10
2019-06-07T09:46:41.421Z,10.17
2019-06-07T09:47:48.874Z,7.37
2019-06-07T09:49:22.309Z,7.60
2019-06-07T09:50:09.187Z,8.83
2019-06-07T09:51:19.905Z,8.10
2019-06-07T09:52:23.532Z,8.60
2019-06-07T09:53:31.079Z,7.77
2019-06-07T09:55:48.249Z,9.17
2019-06-07T09:56:54.975Z,9.10
2019-06-07T09:58:47.856Z,7.60
2019-06-07T09:59:12.870Z,12.20
2019-06-07T10:00:39.662Z,8.57
2019-06-07T10:01:30.283Z,9.83
2019-06-07T10:02:37.879Z,8.90
2019-06-07T10:03:44.685Z,8.63
2019-06-07T10:04:52.661Z,11.43
2019-06-07T10:06:00.350Z,7.67
2019-06-07T10:07:27.254Z,10.13
2019-06-07T10:09:31.474Z,9.20
2019-06-07T10:10:11.640Z,12.50
2019-06-07T10:10:36.748Z,12.73
2019-06-07T10:11:45.269Z,8.37
2019-06-07T10:12:52.108Z,9.23
2019-06-07T10:14:00.297Z,10.33
2019-06-07T10:15:09.018Z,10.43
2019-06-07T10:16:16.696Z,7.70
2019-06-07T10:17:23.738Z,9.40
2019-06-07T10:18:31.287Z,10.50
2019-06-07T10:19:38.133Z,10.23
2019-06-07T10:20:46.148Z,8.03
2019-06-07T10:21:53.270Z,7.00
2019-06-07T10:23:01.622Z,8.83
2019-06-07T10:24:09.727Z,13.63
2019-06-07T10:25:17.793Z,8.00
2019-06-07T10:26:24.551Z,8.47
2019-06-07T10:27:32.072Z,9.27
2019-06-07T10:28:39.442Z,14.43
2019-06-07T10:29:47.012Z,12.47
2019-06-07T10:30:53.806Z,10.30
2019-06-07T10:32:02.268Z,9.20
2019-06-07T10:33:10.377Z,10.90
2019-06-07T10:34:18.149Z,8.30
2019-06-07T10:35:25.252Z,10.03
2019-06-07T10:36:33.180Z,13.40
2019-06-07T10:37:40.374Z,9.50
2019-06-07T10:38:48.057Z,5.87
2019-06-07T10:39:54.803Z,8.63
2019-06-07T10:41:02.853Z,8.07
2019-06-07T10:42:11.569Z,7.63
2019-06-07T10:43:19.307Z,6.43
2019-06-07T10:44:26.077Z,6.43
2019-06-07T10:45:35.013Z,7.00
2019-06-07T10:46:42.196Z,7.07
2019-06-07T10:47:50.184Z,8.90
2019-06-07T10:48:56.983Z,6.70
2019-06-07T10:50:05.959Z,6.70
2019-06-07T10:51:14.798Z,7.17
2019-06-07T10:52:22.192Z,6.47
2019-06-07T10:53:29.036Z,7.73
2019-06-07T10:54:37.111Z,7.10
2019-06-07T10:55:44.271Z,8.93
2019-06-07T10:56:52.461Z,6.63
2019-06-07T10:57:59.183Z,6.40
2019-06-07T10:59:07.088Z,4.80
2019-06-07T11:00:14.692Z,8.50
2019-06-07T11:01:22.580Z,8.27
2019-06-07T11:02:29.718Z,6.33
2019-06-07T11:03:38.227Z,5.37
2019-06-07T11:04:44.959Z,6.23
2019-06-07T11:05:52.645Z,6.13
2019-06-07T11:06:59.379Z,6.93
2019-06-07T11:08:08.010Z,5.60
2019-06-07T11:09:15.335Z,4.40
2019-06-07T11:10:22.877Z,6.70
2019-06-07T11:11:30.014Z,5.07
2019-06-07T11:12:37.692Z,9.60
2019-06-07T11:13:44.909Z,7.40
2019-06-07T11:14:52.770Z,4.53
2019-06-07T11:15:59.583Z,5.37
2019-06-07T11:17:07.466Z,9.67
2019-06-07T11:18:14.932Z,4.60
2019-06-07T11:19:22.712Z,4.53
2019-06-07T11:20:29.432Z,6.93
2019-06-07T11:21:37.403Z,5.50
2019-06-07T11:22:44.879Z,6.30
2019-06-07T11:23:52.429Z,4.10
2019-06-07T11:24:59.523Z,4.30
2019-06-07T11:26:08.324Z,9.90
2019-06-07T11:27:16.315Z,7.13
2019-06-07T11:28:24.153Z,7.13
2019-06-07T11:29:31.256Z,4.97
2019-06-07T11:30:38.847Z,4.00
2019-06-07T11:31:47.503Z,5.50
2019-06-07T11:32:54.873Z,6.47
2019-06-07T11:34:01.605Z,4.33
2019-06-07T11:35:11.920Z,4.53
2019-06-07T11:36:19.172Z,6.50
2019-06-07T11:37:26.750Z,4.20
2019-06-07T11:38:34.047Z,6.60
2019-06-07T11:39:41.956Z,4.20
2019-06-07T11:40:49.202Z,5.80
2019-06-07T11:41:57.114Z,4.00
2019-06-07T11:43:03.960Z,5.40
2019-06-07T11:44:13.006Z,5.20
2019-06-07T11:45:20.055Z,6.23
2019-06-07T11:46:27.592Z,9.90
2019-06-07T11:47:34.690Z,4.70
2019-06-07T11:48:42.331Z,4.00
2019-06-07T11:49:50.154Z,3.20
2019-06-07T11:50:57.656Z,5.50
2019-06-07T11:52:05.134Z,7.60
2019-06-07T11:53:12.849Z,4.37
2019-06-07T11:54:20.604Z,4.00
2019-06-07T11:55:28.488Z,3.90
2019-06-07T11:56:35.699Z,7.23
2019-06-07T11:57:43.575Z,5.70
2019-06-07T11:58:50.638Z,5.63
2019-06-07T11:59:58.498Z,8.23
2019-06-07T12:01:07.447Z,9.73
2019-06-07T12:02:17.449Z,3.67
2019-06-07T12:03:24.445Z,11.07
2019-06-07T12:04:34.771Z,4.93
2019-06-07T12:05:40.941Z,6.13
2019-06-07T12:06:48.805Z,3.10
2019-06-07T12:07:57.162Z,4.00
2019-06-07T12:09:06.498Z,3.80
2019-06-07T12:10:16.570Z,10.20
2019-06-07T12:11:23.701Z,5.37
2019-06-07T12:12:30.964Z,7.80
2019-06-07T12:13:38.570Z,6.70
2019-06-07T12:14:47.806Z,8.00
2019-06-07T12:15:55.830Z,11.07
2019-06-07T12:17:02.547Z,6.50
2019-06-07T12:18:11.242Z,7.33
2019-06-07T12:19:19.677Z,5.83
2019-06-07T12:20:27.743Z,5.60
2019-06-07T12:21:34.880Z,4.97
2019-06-07T12:22:42.518Z,5.50
2019-06-07T12:23:49.242Z,3.40
2019-06-07T12:24:56.743Z,5.97
2019-06-07T12:26:03.479Z,3.50
2019-06-07T12:27:12.658Z,5.90
2019-06-07T12:28:20.916Z,5.53
2019-06-07T12:29:28.638Z,4.00
2019-06-07T12:30:35.712Z,5.00
2019-06-07T12:31:43.915Z,3.20
2019-06-07T12:32:51.174Z,4.20
2019-06-07T12:33:59.101Z,5.57
2019-06-07T12:35:06.565Z,3.50
2019-06-07T12:36:15.794Z,4.53
2019-06-07T12:37:39.254Z,7.30
2019-06-07T12:38:32.420Z,4.03
2019-06-07T12:39:39.614Z,5.23
2019-06-07T12:40:57.241Z,4.80
2019-06-07T12:41:55.915Z,8.07
2019-06-07T12:43:03.606Z,3.67
2019-06-07T12:44:10.415Z,5.07
2019-06-07T12:45:40.118Z,3.83
2019-06-07T12:46:28.705Z,3.90
2019-06-07T12:47:36.307Z,3.73
2019-06-07T12:48:43.145Z,11.00
2019-06-07T12:49:50.672Z,5.30
2019-06-07T12:50:57.449Z,5.80
2019-06-07T12:52:05.026Z,10.47
2019-06-07T12:53:11.865Z,3.10
2019-06-07T12:54:19.707Z,9.43
2019-06-07T12:55:26.586Z,4.83
2019-06-07T12:56:34.089Z,3.93
2019-06-07T12:57:41.299Z,4.50
2019-06-07T12:58:48.807Z,3.27
2019-06-07T12:59:55.556Z,3.33
2019-06-07T13:01:03.059Z,4.17
2019-06-07T13:02:09.939Z,6.17
2019-06-07T13:03:18.402Z,5.63
2019-06-07T13:04:27.687Z,4.40
2019-06-07T13:05:35.382Z,3.50
2019-06-07T13:06:42.168Z,3.43
2019-06-07T13:07:50.407Z,4.97
2019-06-07T13:08:57.206Z,8.00
2019-06-07T13:10:05.093Z,5.43
2019-06-07T13:11:17.585Z,8.50
2019-06-07T13:12:21.783Z,4.53
2019-06-07T13:13:28.618Z,5.10
2019-06-07T13:14:36.145Z,9.73
2019-06-07T13:15:42.990Z,3.00
2019-06-07T13:16:50.791Z,3.53
2019-06-07T13:17:57.539Z,3.20
2019-06-07T13:19:05.291Z,4.40
2019-06-07T13:20:14.186Z,5.60
2019-06-07T13:21:22.368Z,4.63
2019-06-07T13:22:29.350Z,2.43
2019-06-07T13:23:37.263Z,6.33
2019-06-07T13:24:44.148Z,3.50
2019-06-07T13:25:51.686Z,6.10
2019-06-07T13:26:58.457Z,5.13
2019-06-07T13:28:07.131Z,5.80
2019-06-07T13:29:13.864Z,14.30
2019-06-07T13:30:23.473Z,7.30
2019-06-07T13:31:30.426Z,3.20
2019-06-07T13:32:37.980Z,4.43
2019-06-07T13:33:44.796Z,4.30
2019-06-07T13:34:52.675Z,3.13
2019-06-07T13:35:59.425Z,4.93
2019-06-07T13:37:07.704Z,8.17
2019-06-07T13:38:25.875Z,8.10
2019-06-07T13:39:33.768Z,5.43
2019-06-07T13:40:41.460Z,4.10
2019-06-07T13:41:48.979Z,6.13
2019-06-07T13:42:55.779Z,7.50
2019-06-07T13:44:03.281Z,4.00
2019-06-07T13:45:11.346Z,3.67
2019-06-07T13:46:19.049Z,4.67
2019-06-07T13:47:27.508Z,6.07
2019-06-07T13:48:35.568Z,7.00
2019-06-07T13:49:42.687Z,3.73
2019-06-07T13:50:51.014Z,2.83
2019-06-07T13:51:57.927Z,2.90
2019-06-07T13:53:05.453Z,3.27
2019-06-07T13:54:12.202Z,4.97
2019-06-07T13:55:20.075Z,6.23
2019-06-07T13:56:28.370Z,6.07
2019-06-07T13:57:36.311Z,5.17
2019-06-07T13:58:43.085Z,3.37
2019-06-07T13:59:50.713Z,4.40
2019-06-07T14:00:57.499Z,3.33
2019-06-07T14:02:05.739Z,3.40
2019-06-07T14:03:12.958Z,4.43
2019-06-07T14:04:20.976Z,4.70
2019-06-07T14:05:29.110Z,3.63
2019-06-07T14:06:36.870Z,4.30
2019-06-07T14:07:43.663Z,5.97
2019-06-07T14:08:51.323Z,6.23
2019-06-07T14:09:58.102Z,4.87
2019-06-07T14:11:05.638Z,8.93
2019-06-07T14:12:12.451Z,10.20
2019-06-07T14:13:21.465Z,7.50
2019-06-07T14:14:30.608Z,3.73
2019-06-07T14:15:38.404Z,2.80
2019-06-07T14:16:45.167Z,3.13
2019-06-07T14:17:52.749Z,4.37
2019-06-07T14:19:00.030Z,3.80
2019-06-07T14:20:09.483Z,4.13
2019-06-07T14:21:17.272Z,4.40
2019-06-07T14:22:25.268Z,5.40
2019-06-07T14:23:45.927Z,2.90
2019-06-07T14:24:42.956Z,3.00
2019-06-07T14:25:50.383Z,5.73
2019-06-07T14:27:10.104Z,3.10
2019-06-07T14:28:17.277Z,3.30
2019-06-07T14:29:25.541Z,8.10
2019-06-07T14:30:32.856Z,5.17
2019-06-07T14:31:40.820Z,7.10
2019-06-07T14:32:47.621Z,2.63
2019-06-07T14:33:55.605Z,3.57
2019-06-07T14:35:02.395Z,2.93
2019-06-07T14:36:10.865Z,5.13
2019-06-07T14:37:18.071Z,4.60
2019-06-07T14:38:27.330Z,3.40
2019-06-07T14:39:34.139Z,4.43
2019-06-07T14:40:41.881Z,2.80
2019-06-07T14:41:48.698Z,3.33
2019-06-07T14:42:56.239Z,3.73
2019-06-07T14:44:03.306Z,4.13
2019-06-07T14:45:12.856Z,2.43
2019-06-07T14:46:20.023Z,10.77
2019-06-07T14:47:27.960Z,4.60
2019-06-07T14:48:34.821Z,4.27
2019-06-07T14:49:42.766Z,4.23
2019-06-07T14:50:49.824Z,7.40
2019-06-07T14:51:57.391Z,3.43
2019-06-07T14:53:04.167Z,4.50
2019-06-07T14:54:13.418Z,3.00
2019-06-07T14:55:20.259Z,5.17